Airfield :
LOGIN :

Register | Disclaimer

   EN    FR    IT 

 










Legend :    VFR   Marginal VFR   IFR   Intensive IFR   Very Intensive IFR
Visi :
Ceiling :
>= 8 km
>= 3000ft
5 to 8 km
1000 to 3000 ft
1500m to 5 km
500 to 1000 ft
800 to 1500m
200 to 500 ft
< 800m
< 200 ft
Symbols :   Thunderstorms  Fog  Heavy snow  Heavy precipitations  Wind > 20 kt
SIGMETs :     Misc.  Thunderstorms  Icing  Turbulence  Mountain Waves  Volcanic Ashes






- Airport Elevation : 755 ft
- IATA code : DRS


EDDC - Dresden Klotzsche

CURRENT METAR :
  • 250750Z 28004KT 250V310 4500 -DZ BR SCT004 BKN009 03/02 Q1031 TEMPO 5000 BKN004

EXPIRED METARs :
  • 250720Z 26005KT 230V290 5000 -DZ BR SCT005 OVC017 03/02 Q1031 TEMPO BKN004
  • 250650Z 27005KT 230V330 6000 -DZ BKN005 OVC017 03/02 Q1031 TEMPO BKN004
  • 250620Z 27006KT 230V310 6000 -DZ BKN004 03/02 Q1031 TEMPO 4500 -DZ BKN005
  • 250550Z 25005KT 6000 -DZ BKN004 03/02 Q1031 TEMPO 4500 -DZ BKN005

TAF AMD TAF EDDC
Valid from the 25 at 06:00 until the 26 at 06:00 UTC


250633Z 2506/2606 27007KT 7000 SCT006 OVC015
TEMPO 2506/2514 4500 -DZ BKN006
PROB30
TEMPO 2506/2509 BKN004
TEMPO 2514/2524 BKN012
BECMG 2600/2603 OVC012
TEMPO 2600/2606 3000 -DZ BR BKN004



MET'MAP, your aeronautical weather chart ! - Copyright ORBIFLY December 2007 - Disclaimer

ORBIFLY MET'MAP TEAM :

Programming & Development : Alexandra Zaïnal
Original concept : Baudouin d'Aumeries
Technical & hardware support : Manuel Goepfert
Assistance : Marc-Olivier Méhu

Contact : metmap@orbifly.com




SOURCES & CREDITS :

   NOAA